Accueil
METAR-TAF:

METAR-TAF

Aéroports :

Ambae, Vanuatu

latitude: 15-18-24S, longitude: 167-58-02E, altitude: 51 m

Observation

Le bulletin a été fait il y a 1 heure et 13 minutes, à 00:00 UTC
Vent 10 kt de est/sud-est
Température 28°C
Humidité 79%
Pression 1013 hPa
Visibilité 10 km ou plus
Quelques nuages à une hauteur de 2000 ft
Nuages fragmentés à une hauteur de 12000 ft

METAR: NVSG 230000Z 12010KT 9999 FEW020 BKN120 28/24 Q1013

Heure: 12:13 (01:13 UTC)

Prévision

Le bulletin a été fait il y a 2 heures et 13 minutes, à 23:00 UTC
Prévision valable du 23 à 00 UTC au 23 à 24 UTC
Vent 10 kt de sud-est
Visibilité: 9000 m
Nuages épars à une hauteur de 2000 ft
Nuages fragmentés à une hauteur de 4000 ft
Nuages fragmentés à une hauteur de 1800 ft
Ciel couvert à une hauteur de 3800 ft
averses de pluie,

TAF: NVSG 222300Z 2300/2324 14010KT 9999 SCT020 BKN040 INTER 2300/2306 9000 SHRA BKN018 OVC038

Observations et prévisions météorologiques de plus de 4000 aéroports (messages METAR et TAF).

Les stations disponibles sont représentées par des disques jaunes et rouges sur la carte.

Passer la souris dessus pour voir le nom de la station.

Cliquer dessus pour voir les observations et prévisions météorologiques.

Pour changer de carte: cliquez sur les boutons verts avec une croix noire pour zoomer, sur le bouton vert avec un tiret pour effectuer un zoom arrière, ou sur les flèches vertes pour les cartes adjacentes.


METAR-TAF: